Time;durP1;ratioP1;P1;durP2;ratioP2;P2;SDS_P1;SDS_P2;PMS_P1;PMS_P2;Temp;Humidity;BMP_temperature;BMP_pressure;BME280_temperature;BME280_humidity;BME280_pressure;Samples;Min_cycle;Max_cycle;Signal;HPM_P1;HPM_P2
2022/06/06 00:00:13;;;;;;;0.75;0.20;;;13.30;99.90;;;;;;21071356;28;20069;-58
2022/06/06 00:10:15;;;;;;;4.28;0.40;;;13.30;99.90;;;;;;21053662;28;20421;-53
2022/06/06 00:20:18;;;;;;;2.08;0.20;;;13.30;99.90;;;;;;21053538;28;20100;-59
2022/06/06 00:30:21;;;;;;;1.70;0.20;;;13.50;99.90;;;;;;21069456;28;20032;-58
2022/06/06 00:40:26;;;;;;;2.95;0.10;;;13.40;99.90;;;;;;21067349;28;20039;-53
2022/06/06 00:50:47;;;;;;;1.25;0.30;;;13.30;99.90;;;;;;21050983;28;20097;-58
2022/06/06 01:00:51;;;;;;;1.50;0.45;;;13.20;99.90;;;;;;21049624;28;20385;-58
2022/06/06 01:10:55;;;;;;;0.63;0.20;;;13.20;99.90;;;;;;21051248;28;20040;-54
2022/06/06 01:21:06;;;;;;;0.88;0.20;;;13.10;99.90;;;;;;21066380;28;20082;-58
2022/06/06 01:31:19;;;;;;;2.15;0.20;;;13.00;99.90;;;;;;21049237;28;20098;-51
2022/06/06 01:41:47;;;;;;;1.00;0.10;;;13.30;99.90;;;;;;21047573;28;20059;-58
2022/06/06 01:52:19;;;;;;;0.40;0.20;;;13.60;99.90;;;;;;21040857;28;20409;-53
2022/06/06 02:02:22;;;;;;;0.63;0.20;;;13.40;99.90;;;;;;20725566;28;20061;-58
2022/06/06 02:12:24;;;;;;;1.35;0.20;;;13.30;99.90;;;;;;20714134;28;20427;-57
2022/06/06 02:22:27;;;;;;;0.28;0.10;;;13.40;99.90;;;;;;20723786;28;20442;-53
2022/06/06 02:32:30;;;;;;;0.82;0.40;;;13.40;99.90;;;;;;20810122;28;20044;-58
2022/06/06 02:42:35;;;;;;;4.13;0.17;;;13.30;99.90;;;;;;21059830;28;20052;-52
2022/06/06 02:52:39;;;;;;;0.55;0.22;;;13.20;99.90;;;;;;21060217;28;20036;-59
2022/06/06 03:02:41;;;;;;;1.05;0.10;;;13.00;99.90;;;;;;21059572;28;20473;-58
2022/06/06 03:12:47;;;;;;;0.13;0.10;;;12.90;99.90;;;;;;21058919;28;20036;-58
2022/06/06 03:23:22;;;;;;;2.10;0.10;;;12.90;99.90;;;;;;21057156;28;20093;-58
2022/06/06 03:33:33;;;;;;;0.10;0.10;;;13.00;99.90;;;;;;21057611;28;20510;-53
2022/06/06 03:44:04;;;;;;;0.93;0.10;;;12.90;99.90;;;;;;21054670;28;20052;-52
2022/06/06 03:54:21;;;;;;;3.55;0.25;;;12.90;99.90;;;;;;21055813;28;20481;-51
2022/06/06 04:04:24;;;;;;;1.45;0.17;;;13.00;99.90;;;;;;21055850;28;20100;-49
2022/06/06 04:14:45;;;;;;;0.52;0.20;;;13.30;99.90;;;;;;21053855;28;20040;-50
2022/06/06 04:25:15;;;;;;;1.15;0.20;;;13.30;99.90;;;;;;21052710;28;20101;-51
2022/06/06 04:35:26;;;;;;;0.50;0.10;;;13.30;99.90;;;;;;21052369;28;20036;-50
2022/06/06 04:45:52;;;;;;;0.45;0.10;;;13.20;99.90;;;;;;21070960;28;20493;-53
2022/06/06 04:55:56;;;;;;;4.97;0.65;;;13.20;99.90;;;;;;21050953;28;20040;-50
2022/06/06 05:06:08;;;;;;;0.20;0.10;;;13.00;99.90;;;;;;21042053;28;20116;-58
2022/06/06 05:16:41;;;;;;;0.50;0.10;;;13.00;99.90;;;;;;21050249;28;20035;-59
2022/06/06 05:27:06;;;;;;;3.80;0.10;;;13.00;99.90;;;;;;21049836;28;20043;-59
2022/06/06 05:37:24;;;;;;;0.63;0.10;;;13.20;99.90;;;;;;21032645;28;20040;-54
2022/06/06 05:47:47;;;;;;;0.25;0.10;;;13.30;99.90;;;;;;21053975;28;20109;-52
2022/06/06 05:58:10;;;;;;;0.30;0.20;;;13.60;99.90;;;;;;21064975;28;20040;-52
2022/06/06 06:08:35;;;;;;;0.10;0.00;;;13.50;99.90;;;;;;21064293;28;20094;-60
2022/06/06 06:18:49;;;;;;;0.20;0.10;;;15.20;99.90;;;;;;21063169;28;20500;-60
2022/06/06 06:28:54;;;;;;;1.77;0.13;;;20.50;94.40;;;;;;21062527;28;20542;-61
2022/06/06 06:39:20;;;;;;;1.17;0.35;;;23.20;91.00;;;;;;21061128;28;20097;-55
2022/06/06 06:49:53;;;;;;;0.73;0.40;;;24.50;82.00;;;;;;21078093;28;20039;-59
2022/06/06 07:00:09;;;;;;;0.43;0.20;;;26.10;78.30;;;;;;21059006;28;20036;-56
2022/06/06 07:10:20;;;;;;;;;;;27.70;71.10;;;;;;21059589;28;20036;-59
2022/06/06 07:20:23;;;;;;;2.20;0.22;;;26.90;70.30;;;;;;21058545;28;20371;-59
2022/06/06 07:30:33;;;;;;;1.75;0.40;;;27.50;74.00;;;;;;21057664;28;20032;-56
2022/06/06 07:40:59;;;;;;;2.03;0.70;;;29.00;70.10;;;;;;21055170;28;20070;-61
2022/06/06 07:51:20;;;;;;;3.35;0.60;;;29.10;67.40;;;;;;21055684;28;20097;-61
2022/06/06 08:01:49;;;;;;;2.72;0.50;;;29.00;70.80;;;;;;21055657;28;20115;-56
2022/06/06 08:11:55;;;;;;;3.47;0.60;;;28.70;68.10;;;;;;21054906;28;20035;-61
2022/06/06 08:21:59;;;;;;;5.20;1.35;;;28.40;71.90;;;;;;21053401;28;20077;-61
2022/06/06 08:32:03;;;;;;;8.90;1.80;;;28.10;72.80;;;;;;21052295;28;20081;-61
2022/06/06 08:42:34;;;;;;;8.15;1.40;;;28.00;74.60;;;;;;21050582;28;20040;-63
2022/06/06 08:53:15;;;;;;;3.65;0.68;;;27.60;76.40;;;;;;21051272;28;20437;-62
2022/06/06 09:03:56;;;;;;;3.83;0.88;;;27.40;77.10;;;;;;21050739;28;20028;-62
2022/06/06 09:14:17;;;;;;;3.13;0.93;;;27.40;76.80;;;;;;21034427;28;20101;-62
2022/06/06 09:24:58;;;;;;;6.78;1.77;;;27.60;76.60;;;;;;21048799;28;20089;-63
2022/06/06 09:35:39;;;;;;;5.20;1.60;;;27.50;82.80;;;;;;21048901;28;20040;-63
2022/06/06 09:46:29;;;;;;;2.80;1.63;;;27.50;82.20;;;;;;21070364;28;20380;-64
2022/06/06 10:07:14;;;;;;;8.50;1.75;;;28.20;87.00;;;;;;20972571;28;20044;-62
2022/06/06 10:17:57;;;;;;;8.45;1.65;;;27.60;87.20;;;;;;20989171;28;20095;-63
2022/06/06 10:28:15;;;;;;;4.47;2.08;;;27.40;87.70;;;;;;21062926;28;20066;-63
2022/06/06 10:38:43;;;;;;;7.82;1.95;;;26.50;89.80;;;;;;21058432;28;20047;-62
2022/06/06 10:49:10;;;;;;;5.95;1.80;;;26.20;90.10;;;;;;21061092;28;20062;-64
2022/06/06 10:59:41;;;;;;;3.65;1.48;;;26.70;90.60;;;;;;21061154;28;20032;-65
2022/06/06 11:10:23;;;;;;;4.20;1.50;;;27.30;90.70;;;;;;21076143;28;20032;-66
2022/06/06 11:20:51;;;;;;;4.85;1.55;;;28.40;82.10;;;;;;21075092;28;20481;-65
2022/06/06 11:31:36;;;;;;;3.17;1.52;;;28.90;87.30;;;;;;21057147;28;20040;-63
2022/06/06 11:42:04;;;;;;;5.50;1.48;;;28.40;85.00;;;;;;20755098;28;20096;-65
2022/06/06 11:52:42;;;;;;;8.80;1.90;;;28.60;85.80;;;;;;20798697;28;20580;-65
2022/06/06 12:03:15;;;;;;;1.95;1.05;;;28.70;83.70;;;;;;20795012;28;20042;-64
2022/06/06 12:13:56;;;;;;;3.67;1.00;;;28.80;85.60;;;;;;20854029;28;20052;-64
2022/06/06 12:24:13;;;;;;;4.25;1.00;;;28.60;88.00;;;;;;20967824;28;20112;-63
2022/06/06 12:34:40;;;;;;;1.98;0.95;;;27.70;85.20;;;;;;20985196;28;20070;-62
2022/06/06 12:45:06;;;;;;;3.25;1.08;;;27.70;85.70;;;;;;21043952;28;20055;-57
2022/06/06 12:55:43;;;;;;;1.52;0.82;;;27.30;89.00;;;;;;21050248;28;20124;-65
2022/06/06 13:06:25;;;;;;;3.22;1.45;;;27.80;83.40;;;;;;21067398;28;20461;-57
2022/06/06 13:16:48;;;;;;;2.63;1.08;;;28.50;84.50;;;;;;21066154;28;20032;-63
2022/06/06 13:26:55;;;;;;;5.75;1.25;;;26.90;86.50;;;;;;21066253;28;20040;-54
2022/06/06 13:37:17;;;;;;;3.85;1.25;;;25.40;87.60;;;;;;21048820;28;20085;-54
2022/06/06 13:47:41;;;;;;;3.10;1.20;;;25.20;89.10;;;;;;20975458;28;20036;-63
2022/06/06 13:57:58;;;;;;;4.45;1.70;;;26.40;88.10;;;;;;20965256;28;20084;-61
2022/06/06 14:08:13;;;;;;;2.40;1.40;;;25.40;89.30;;;;;;20985543;28;20448;-61
2022/06/06 14:18:27;;;;;;;2.80;1.52;;;24.90;90.30;;;;;;20989476;28;20036;-65
2022/06/06 14:28:39;;;;;;;3.38;1.77;;;25.00;90.90;;;;;;20978996;28;20041;-61
2022/06/06 14:38:41;;;;;;;4.43;2.15;;;26.50;87.40;;;;;;20992177;28;20040;-65
2022/06/06 14:48:49;;;;;;;3.13;1.40;;;26.50;87.30;;;;;;21060941;28;20036;-63
2022/06/06 14:59:11;;;;;;;5.00;1.38;;;27.80;83.80;;;;;;21060407;28;20040;-62
2022/06/06 15:09:39;;;;;;;3.05;1.83;;;26.30;85.90;;;;;;21059207;28;20382;-61
2022/06/06 15:19:41;;;;;;;3.35;1.40;;;24.60;90.30;;;;;;21057162;28;20411;-61
2022/06/06 15:29:55;;;;;;;3.08;1.00;;;23.80;91.10;;;;;;21074368;28;20089;-60
2022/06/06 15:40:15;;;;;;;2.70;1.60;;;23.00;91.60;;;;;;21030717;28;20508;-52
2022/06/06 15:50:40;;;;;;;5.43;1.15;;;23.70;90.20;;;;;;21048888;28;20097;-53
2022/06/06 16:01:04;;;;;;;5.10;1.55;;;23.50;91.00;;;;;;21072096;28;20032;-63
2022/06/06 16:11:15;;;;;;;4.40;1.52;;;23.20;90.80;;;;;;21054461;28;20489;-55
2022/06/06 16:21:23;;;;;;;4.82;1.60;;;22.60;92.30;;;;;;21046605;28;20055;-62
2022/06/06 16:31:34;;;;;;;4.60;1.45;;;22.80;91.80;;;;;;21069368;28;20036;-63
2022/06/06 16:52:13;;;;;;;3.55;1.73;;;21.90;92.50;;;;;;20794152;28;20163;-61
2022/06/06 17:02:20;;;;;;;4.90;1.55;;;20.90;95.00;;;;;;20793942;28;20049;-61
2022/06/06 17:12:33;;;;;;;3.83;2.00;;;20.20;95.00;;;;;;20792915;28;20102;-61
2022/06/06 17:22:38;;;;;;;4.72;2.15;;;19.90;95.60;;;;;;20854089;28;20534;-61
2022/06/06 17:33:02;;;;;;;4.85;2.03;;;19.30;96.80;;;;;;21049687;28;20473;-61
2022/06/06 17:43:08;;;;;;;2.85;1.70;;;18.90;98.10;;;;;;21052559;28;20044;-61
2022/06/06 17:53:23;;;;;;;6.35;2.10;;;18.60;99.90;;;;;;21065354;28;20093;-61
2022/06/06 18:04:04;;;;;;;6.43;2.00;;;18.00;99.90;;;;;;21064005;28;20489;-61
2022/06/06 18:14:31;;;;;;;4.10;1.98;;;17.30;99.90;;;;;;21080880;28;20366;-60
2022/06/06 18:24:44;;;;;;;8.73;3.15;;;16.60;99.90;;;;;;21062525;28;20040;-60
2022/06/06 18:35:18;;;;;;;4.85;2.03;;;16.20;99.90;;;;;;21078550;28;20149;-52
2022/06/06 18:45:30;;;;;;;7.30;3.28;;;15.80;99.90;;;;;;21072601;28;20044;-60
2022/06/06 18:55:36;;;;;;;7.18;3.80;;;15.50;99.90;;;;;;21059969;28;20065;-60
2022/06/06 19:05:40;;;;;;;6.80;3.65;;;15.00;99.90;;;;;;21042653;28;20040;-56
2022/06/06 19:15:47;;;;;;;7.18;4.10;;;15.00;99.90;;;;;;21042048;28;20062;-60
2022/06/06 19:25:57;;;;;;;6.53;3.33;;;14.80;99.90;;;;;;21057591;28;20036;-54
2022/06/06 19:36:07;;;;;;;11.02;3.72;;;14.60;99.90;;;;;;21040660;28;20032;-60
2022/06/06 19:46:19;;;;;;;7.55;4.10;;;14.40;99.90;;;;;;21069442;28;20040;-60
2022/06/06 19:56:54;;;;;;;8.45;4.00;;;14.20;99.90;;;;;;21055852;28;20561;-60
2022/06/06 20:07:03;;;;;;;7.93;3.83;;;14.00;99.90;;;;;;21052469;28;20036;-60
2022/06/06 20:17:18;;;;;;;6.70;4.18;;;13.80;99.90;;;;;;21055207;28;20040;-53
2022/06/06 20:27:26;;;;;;;10.70;4.47;;;13.60;99.90;;;;;;21053642;28;20028;-60
2022/06/06 20:37:30;;;;;;;10.68;4.93;;;13.50;99.90;;;;;;21051639;28;20089;-60
2022/06/06 20:47:32;;;;;;;7.00;4.20;;;13.60;99.90;;;;;;21034995;28;20051;-60
2022/06/06 20:58:02;;;;;;;8.30;3.65;;;13.80;99.90;;;;;;21051640;28;20093;-52
2022/06/06 21:08:05;;;;;;;12.23;4.40;;;14.10;99.90;;;;;;21051556;28;20032;-60
2022/06/06 21:18:08;;;;;;;7.30;4.18;;;14.20;99.90;;;;;;21050721;28;20316;-60
2022/06/06 21:28:10;;;;;;;10.43;5.00;;;14.10;99.90;;;;;;21049649;28;20032;-54
2022/06/06 21:38:14;;;;;;;9.57;4.63;;;13.90;99.90;;;;;;21048057;28;20105;-59
2022/06/06 21:48:17;;;;;;;9.35;5.95;;;13.70;99.90;;;;;;21049075;28;20040;-59
2022/06/06 21:58:21;;;;;;;12.25;6.95;;;13.40;99.90;;;;;;21048829;28;20044;-51
2022/06/06 22:08:24;;;;;;;9.77;5.68;;;13.20;99.90;;;;;;21048715;28;20040;-60
2022/06/06 22:18:27;;;;;;;8.73;5.07;;;13.10;99.90;;;;;;21031703;28;20032;-59
2022/06/06 22:28:29;;;;;;;8.32;5.45;;;12.90;99.90;;;;;;21051482;28;20032;-60
2022/06/06 22:38:32;;;;;;;10.45;5.10;;;12.80;99.90;;;;;;21061537;28;20048;-60
2022/06/06 22:48:35;;;;;;;12.40;5.60;;;12.90;99.90;;;;;;21078498;28;20036;-60
2022/06/06 22:58:39;;;;;;;6.53;4.05;;;12.90;99.90;;;;;;21060744;28;20073;-60
2022/06/06 23:08:43;;;;;;;9.35;4.30;;;12.90;99.90;;;;;;21059875;28;20058;-51
2022/06/06 23:18:45;;;;;;;9.68;4.28;;;12.90;99.90;;;;;;21059267;28;20373;-59
2022/06/06 23:28:48;;;;;;;7.97;3.70;;;13.00;99.90;;;;;;21058139;28;20255;-59
2022/06/06 23:39:06;;;;;;;8.32;4.20;;;13.10;99.90;;;;;;21073096;28;20105;-60
2022/06/06 23:49:19;;;;;;;6.95;3.03;;;13.10;99.90;;;;;;21056417;28;20044;-61
2022/06/06 23:59:21;;;;;;;12.38;3.70;;;13.50;99.90;;;;;;21055631;28;20036;-61
